sensor_id;sensor_type;location;lat;lon;timestamp;P1;durP1;ratioP1;P2;durP2;ratioP2
33993;SDS011;20673;48.980;8.138;2022-09-23T00:01:03;3.63;;;2.97;;
33993;SDS011;20673;48.980;8.138;2022-09-23T00:03:33;3.87;;;3.10;;
33993;SDS011;20673;48.980;8.138;2022-09-23T00:06:02;5.13;;;3.07;;
33993;SDS011;20673;48.980;8.138;2022-09-23T00:08:32;3.10;;;2.80;;
33993;SDS011;20673;48.980;8.138;2022-09-23T00:13:36;3.97;;;3.50;;
33993;SDS011;20673;48.980;8.138;2022-09-23T00:16:05;3.33;;;3.00;;
33993;SDS011;20673;48.980;8.138;2022-09-23T00:18:34;3.00;;;2.37;;
33993;SDS011;20673;48.980;8.138;2022-09-23T00:21:03;3.17;;;2.73;;
33993;SDS011;20673;48.980;8.138;2022-09-23T00:23:33;3.50;;;2.87;;
33993;SDS011;20673;48.980;8.138;2022-09-23T00:26:00;3.70;;;2.73;;
33993;SDS011;20673;48.980;8.138;2022-09-23T00:28:29;4.10;;;2.93;;
33993;SDS011;20673;48.980;8.138;2022-09-23T00:30:56;4.50;;;2.63;;
33993;SDS011;20673;48.980;8.138;2022-09-23T00:33:35;4.70;;;2.70;;
33993;SDS011;20673;48.980;8.138;2022-09-23T00:36:03;6.53;;;2.90;;
33993;SDS011;20673;48.980;8.138;2022-09-23T00:38:31;3.50;;;2.67;;
33993;SDS011;20673;48.980;8.138;2022-09-23T00:40:58;4.03;;;2.77;;
33993;SDS011;20673;48.980;8.138;2022-09-23T00:46:35;4.50;;;2.93;;
33993;SDS011;20673;48.980;8.138;2022-09-23T00:51:49;2.83;;;2.53;;
33993;SDS011;20673;48.980;8.138;2022-09-23T00:54:19;3.08;;;2.70;;
33993;SDS011;20673;48.980;8.138;2022-09-23T00:56:48;3.10;;;2.53;;
33993;SDS011;20673;48.980;8.138;2022-09-23T00:59:14;3.90;;;2.73;;
33993;SDS011;20673;48.980;8.138;2022-09-23T01:01:41;5.47;;;2.70;;
33993;SDS011;20673;48.980;8.138;2022-09-23T01:04:09;4.73;;;2.60;;
33993;SDS011;20673;48.980;8.138;2022-09-23T01:06:36;3.63;;;2.90;;
33993;SDS011;20673;48.980;8.138;2022-09-23T01:09:02;3.10;;;2.60;;
33993;SDS011;20673;48.980;8.138;2022-09-23T01:11:35;3.90;;;2.53;;
33993;SDS011;20673;48.980;8.138;2022-09-23T01:14:16;5.47;;;3.00;;
33993;SDS011;20673;48.980;8.138;2022-09-23T01:17:08;5.33;;;3.10;;
33993;SDS011;20673;48.980;8.138;2022-09-23T01:28:29;6.50;;;2.77;;
33993;SDS011;20673;48.980;8.138;2022-09-23T01:31:04;3.03;;;2.40;;
33993;SDS011;20673;48.980;8.138;2022-09-23T01:36:23;3.23;;;2.67;;
33993;SDS011;20673;48.980;8.138;2022-09-23T01:42:00;3.23;;;2.83;;
33993;SDS011;20673;48.980;8.138;2022-09-23T01:44:35;4.57;;;2.40;;
33993;SDS011;20673;48.980;8.138;2022-09-23T01:47:09;3.30;;;2.80;;
33993;SDS011;20673;48.980;8.138;2022-09-23T01:49:54;10.23;;;3.43;;
33993;SDS011;20673;48.980;8.138;2022-09-23T01:52:37;5.60;;;2.93;;
33993;SDS011;20673;48.980;8.138;2022-09-23T01:57:46;4.20;;;2.87;;
33993;SDS011;20673;48.980;8.138;2022-09-23T02:00:17;4.53;;;3.17;;
33993;SDS011;20673;48.980;8.138;2022-09-23T02:05:35;4.43;;;2.63;;
33993;SDS011;20673;48.980;8.138;2022-09-23T02:08:10;6.33;;;3.50;;
33993;SDS011;20673;48.980;8.138;2022-09-23T02:10:41;4.12;;;3.55;;
33993;SDS011;20673;48.980;8.138;2022-09-23T02:13:36;4.30;;;2.83;;
33993;SDS011;20673;48.980;8.138;2022-09-23T02:16:25;3.23;;;2.90;;
33993;SDS011;20673;48.980;8.138;2022-09-23T02:21:52;3.10;;;2.63;;
33993;SDS011;20673;48.980;8.138;2022-09-23T02:24:32;3.33;;;2.70;;
33993;SDS011;20673;48.980;8.138;2022-09-23T02:32:51;4.97;;;3.20;;
33993;SDS011;20673;48.980;8.138;2022-09-23T02:41:10;5.63;;;3.07;;
33993;SDS011;20673;48.980;8.138;2022-09-23T02:43:52;3.70;;;2.90;;
33993;SDS011;20673;48.980;8.138;2022-09-23T02:46:31;3.60;;;2.80;;
33993;SDS011;20673;48.980;8.138;2022-09-23T02:49:02;3.20;;;2.50;;
33993;SDS011;20673;48.980;8.138;2022-09-23T02:51:40;3.47;;;2.63;;
33993;SDS011;20673;48.980;8.138;2022-09-23T02:54:08;4.17;;;2.70;;
33993;SDS011;20673;48.980;8.138;2022-09-23T02:56:44;3.87;;;2.87;;
33993;SDS011;20673;48.980;8.138;2022-09-23T02:59:12;4.57;;;2.87;;
33993;SDS011;20673;48.980;8.138;2022-09-23T03:04:40;4.20;;;2.70;;
33993;SDS011;20673;48.980;8.138;2022-09-23T03:11:16;5.80;;;3.23;;
33993;SDS011;20673;48.980;8.138;2022-09-23T03:13:53;5.10;;;3.17;;
33993;SDS011;20673;48.980;8.138;2022-09-23T03:19:27;5.53;;;2.83;;
33993;SDS011;20673;48.980;8.138;2022-09-23T03:22:02;5.67;;;3.00;;
33993;SDS011;20673;48.980;8.138;2022-09-23T03:24:43;4.60;;;3.30;;
33993;SDS011;20673;48.980;8.138;2022-09-23T03:27:13;5.33;;;3.50;;
33993;SDS011;20673;48.980;8.138;2022-09-23T03:29:50;3.87;;;3.02;;
33993;SDS011;20673;48.980;8.138;2022-09-23T03:32:19;5.67;;;3.37;;
33993;SDS011;20673;48.980;8.138;2022-09-23T03:34:49;3.57;;;3.00;;
33993;SDS011;20673;48.980;8.138;2022-09-23T03:37:23;3.83;;;3.07;;
33993;SDS011;20673;48.980;8.138;2022-09-23T03:42:56;3.10;;;2.80;;
33993;SDS011;20673;48.980;8.138;2022-09-23T03:45:26;3.30;;;2.80;;
33993;SDS011;20673;48.980;8.138;2022-09-23T03:47:58;4.47;;;2.80;;
33993;SDS011;20673;48.980;8.138;2022-09-23T03:50:25;4.67;;;2.87;;
33993;SDS011;20673;48.980;8.138;2022-09-23T03:52:53;3.30;;;2.83;;
33993;SDS011;20673;48.980;8.138;2022-09-23T03:55:20;3.70;;;2.83;;
33993;SDS011;20673;48.980;8.138;2022-09-23T03:57:47;3.57;;;3.00;;
33993;SDS011;20673;48.980;8.138;2022-09-23T04:00:13;3.80;;;2.80;;
33993;SDS011;20673;48.980;8.138;2022-09-23T04:02:41;5.27;;;3.47;;
33993;SDS011;20673;48.980;8.138;2022-09-23T04:05:07;3.13;;;2.83;;
33993;SDS011;20673;48.980;8.138;2022-09-23T04:07:35;3.53;;;2.67;;
33993;SDS011;20673;48.980;8.138;2022-09-23T04:10:01;5.40;;;3.27;;
33993;SDS011;20673;48.980;8.138;2022-09-23T04:12:29;3.43;;;2.90;;
33993;SDS011;20673;48.980;8.138;2022-09-23T04:14:55;6.13;;;3.27;;
33993;SDS011;20673;48.980;8.138;2022-09-23T04:17:21;3.73;;;2.97;;
33993;SDS011;20673;48.980;8.138;2022-09-23T04:19:48;3.67;;;2.93;;
33993;SDS011;20673;48.980;8.138;2022-09-23T04:22:14;4.03;;;2.87;;
33993;SDS011;20673;48.980;8.138;2022-09-23T04:24:41;3.87;;;2.63;;
33993;SDS011;20673;48.980;8.138;2022-09-23T04:27:07;4.90;;;3.00;;
33993;SDS011;20673;48.980;8.138;2022-09-23T04:29:33;4.47;;;3.10;;
33993;SDS011;20673;48.980;8.138;2022-09-23T04:31:59;5.07;;;2.80;;
33993;SDS011;20673;48.980;8.138;2022-09-23T04:34:26;4.00;;;3.00;;
33993;SDS011;20673;48.980;8.138;2022-09-23T04:36:52;7.47;;;3.00;;
33993;SDS011;20673;48.980;8.138;2022-09-23T04:39:19;4.00;;;2.90;;
33993;SDS011;20673;48.980;8.138;2022-09-23T04:41:45;3.33;;;2.87;;
33993;SDS011;20673;48.980;8.138;2022-09-23T04:44:12;4.43;;;3.03;;
33993;SDS011;20673;48.980;8.138;2022-09-23T04:46:39;4.07;;;2.90;;
33993;SDS011;20673;48.980;8.138;2022-09-23T04:49:08;3.87;;;2.73;;
33993;SDS011;20673;48.980;8.138;2022-09-23T04:51:34;5.90;;;3.30;;
33993;SDS011;20673;48.980;8.138;2022-09-23T04:54:01;5.13;;;3.37;;
33993;SDS011;20673;48.980;8.138;2022-09-23T04:56:27;5.80;;;3.13;;
33993;SDS011;20673;48.980;8.138;2022-09-23T04:58:58;4.67;;;2.93;;
33993;SDS011;20673;48.980;8.138;2022-09-23T05:01:27;6.13;;;3.23;;
33993;SDS011;20673;48.980;8.138;2022-09-23T05:03:57;4.53;;;3.37;;
33993;SDS011;20673;48.980;8.138;2022-09-23T05:06:27;5.00;;;3.60;;
33993;SDS011;20673;48.980;8.138;2022-09-23T05:09:03;3.90;;;3.30;;
33993;SDS011;20673;48.980;8.138;2022-09-23T05:11:31;4.93;;;3.30;;
33993;SDS011;20673;48.980;8.138;2022-09-23T05:13:59;4.57;;;3.40;;
33993;SDS011;20673;48.980;8.138;2022-09-23T05:16:25;4.43;;;3.57;;
33993;SDS011;20673;48.980;8.138;2022-09-23T05:18:52;3.90;;;2.83;;
33993;SDS011;20673;48.980;8.138;2022-09-23T05:21:20;4.60;;;3.70;;
33993;SDS011;20673;48.980;8.138;2022-09-23T05:23:49;5.90;;;3.93;;
33993;SDS011;20673;48.980;8.138;2022-09-23T05:26:20;3.50;;;2.70;;
33993;SDS011;20673;48.980;8.138;2022-09-23T05:28:49;4.43;;;3.10;;
33993;SDS011;20673;48.980;8.138;2022-09-23T05:31:17;6.13;;;3.53;;
33993;SDS011;20673;48.980;8.138;2022-09-23T05:33:47;4.93;;;3.67;;
33993;SDS011;20673;48.980;8.138;2022-09-23T05:36:16;3.80;;;3.40;;
33993;SDS011;20673;48.980;8.138;2022-09-23T05:38:45;5.07;;;3.53;;
33993;SDS011;20673;48.980;8.138;2022-09-23T05:41:13;4.20;;;3.73;;
33993;SDS011;20673;48.980;8.138;2022-09-23T05:43:40;3.97;;;3.13;;
33993;SDS011;20673;48.980;8.138;2022-09-23T05:46:09;3.53;;;3.17;;
33993;SDS011;20673;48.980;8.138;2022-09-23T05:48:39;6.33;;;3.62;;
33993;SDS011;20673;48.980;8.138;2022-09-23T05:51:07;3.43;;;3.13;;
33993;SDS011;20673;48.980;8.138;2022-09-23T05:53:37;4.60;;;3.50;;
33993;SDS011;20673;48.980;8.138;2022-09-23T05:56:05;7.47;;;3.87;;
33993;SDS011;20673;48.980;8.138;2022-09-23T05:58:32;7.07;;;4.23;;
33993;SDS011;20673;48.980;8.138;2022-09-23T06:00:58;7.03;;;4.03;;
33993;SDS011;20673;48.980;8.138;2022-09-23T06:03:25;7.03;;;4.03;;
33993;SDS011;20673;48.980;8.138;2022-09-23T06:05:51;5.10;;;4.00;;
33993;SDS011;20673;48.980;8.138;2022-09-23T06:08:19;6.60;;;4.67;;
33993;SDS011;20673;48.980;8.138;2022-09-23T06:10:46;6.00;;;3.93;;
33993;SDS011;20673;48.980;8.138;2022-09-23T06:13:13;4.27;;;3.50;;
33993;SDS011;20673;48.980;8.138;2022-09-23T06:15:42;6.07;;;3.63;;
33993;SDS011;20673;48.980;8.138;2022-09-23T06:18:09;5.93;;;4.10;;
33993;SDS011;20673;48.980;8.138;2022-09-23T06:20:37;6.23;;;4.43;;
33993;SDS011;20673;48.980;8.138;2022-09-23T06:23:04;5.53;;;4.00;;
33993;SDS011;20673;48.980;8.138;2022-09-23T06:25:33;5.10;;;4.07;;
33993;SDS011;20673;48.980;8.138;2022-09-23T06:28:02;5.50;;;4.73;;
33993;SDS011;20673;48.980;8.138;2022-09-23T06:30:31;8.20;;;4.53;;
33993;SDS011;20673;48.980;8.138;2022-09-23T06:32:59;6.40;;;4.70;;
33993;SDS011;20673;48.980;8.138;2022-09-23T06:35:26;7.23;;;4.60;;
33993;SDS011;20673;48.980;8.138;2022-09-23T06:37:53;6.23;;;5.27;;
33993;SDS011;20673;48.980;8.138;2022-09-23T06:40:20;5.57;;;4.90;;
33993;SDS011;20673;48.980;8.138;2022-09-23T06:42:47;5.20;;;4.70;;
33993;SDS011;20673;48.980;8.138;2022-09-23T06:45:15;6.47;;;4.80;;
33993;SDS011;20673;48.980;8.138;2022-09-23T06:47:42;6.83;;;5.20;;
33993;SDS011;20673;48.980;8.138;2022-09-23T06:50:13;7.63;;;6.20;;
33993;SDS011;20673;48.980;8.138;2022-09-23T06:52:37;5.93;;;5.33;;
33993;SDS011;20673;48.980;8.138;2022-09-23T06:55:04;5.37;;;4.67;;
33993;SDS011;20673;48.980;8.138;2022-09-23T06:57:31;5.57;;;4.43;;
33993;SDS011;20673;48.980;8.138;2022-09-23T06:59:58;7.23;;;5.10;;
33993;SDS011;20673;48.980;8.138;2022-09-23T07:02:24;6.57;;;4.50;;
33993;SDS011;20673;48.980;8.138;2022-09-23T07:04:51;8.70;;;5.77;;
33993;SDS011;20673;48.980;8.138;2022-09-23T07:07:20;10.13;;;6.07;;
33993;SDS011;20673;48.980;8.138;2022-09-23T07:09:46;5.33;;;4.57;;
33993;SDS011;20673;48.980;8.138;2022-09-23T07:12:12;5.80;;;5.03;;
33993;SDS011;20673;48.980;8.138;2022-09-23T07:14:38;6.20;;;5.00;;
33993;SDS011;20673;48.980;8.138;2022-09-23T07:17:05;6.30;;;4.97;;
33993;SDS011;20673;48.980;8.138;2022-09-23T07:19:31;7.50;;;5.17;;
33993;SDS011;20673;48.980;8.138;2022-09-23T07:21:59;5.27;;;4.70;;
33993;SDS011;20673;48.980;8.138;2022-09-23T07:24:25;7.93;;;6.00;;
33993;SDS011;20673;48.980;8.138;2022-09-23T07:26:52;7.23;;;5.73;;
33993;SDS011;20673;48.980;8.138;2022-09-23T07:29:19;5.63;;;4.90;;
33993;SDS011;20673;48.980;8.138;2022-09-23T07:31:46;8.13;;;5.87;;
33993;SDS011;20673;48.980;8.138;2022-09-23T07:34:12;7.10;;;5.00;;
33993;SDS011;20673;48.980;8.138;2022-09-23T07:36:39;5.60;;;4.87;;
33993;SDS011;20673;48.980;8.138;2022-09-23T07:39:06;5.73;;;5.23;;
33993;SDS011;20673;48.980;8.138;2022-09-23T07:41:35;5.90;;;5.17;;
33993;SDS011;20673;48.980;8.138;2022-09-23T07:44:02;5.22;;;4.67;;
33993;SDS011;20673;48.980;8.138;2022-09-23T07:46:32;6.05;;;5.10;;
33993;SDS011;20673;48.980;8.138;2022-09-23T07:49:00;6.05;;;5.33;;
33993;SDS011;20673;48.980;8.138;2022-09-23T07:51:29;5.78;;;4.85;;
33993;SDS011;20673;48.980;8.138;2022-09-23T07:53:59;5.42;;;4.55;;
33993;SDS011;20673;48.980;8.138;2022-09-23T07:56:26;5.72;;;5.10;;
33993;SDS011;20673;48.980;8.138;2022-09-23T07:58:54;5.50;;;4.50;;
33993;SDS011;20673;48.980;8.138;2022-09-23T08:01:27;6.85;;;4.62;;
33993;SDS011;20673;48.980;8.138;2022-09-23T08:04:00;5.70;;;4.72;;
33993;SDS011;20673;48.980;8.138;2022-09-23T08:06:31;6.40;;;5.37;;
33993;SDS011;20673;48.980;8.138;2022-09-23T08:08:59;6.08;;;5.35;;
33993;SDS011;20673;48.980;8.138;2022-09-23T08:11:26;7.10;;;4.65;;
33993;SDS011;20673;48.980;8.138;2022-09-23T08:13:53;6.60;;;4.35;;
33993;SDS011;20673;48.980;8.138;2022-09-23T08:16:20;7.53;;;5.53;;
33993;SDS011;20673;48.980;8.138;2022-09-23T08:18:46;6.53;;;5.50;;
33993;SDS011;20673;48.980;8.138;2022-09-23T08:21:17;6.58;;;5.03;;
33993;SDS011;20673;48.980;8.138;2022-09-23T08:23:45;6.15;;;5.55;;
33993;SDS011;20673;48.980;8.138;2022-09-23T08:26:12;7.35;;;5.67;;
33993;SDS011;20673;48.980;8.138;2022-09-23T08:28:39;10.53;;;5.97;;
33993;SDS011;20673;48.980;8.138;2022-09-23T08:31:10;7.75;;;5.67;;
33993;SDS011;20673;48.980;8.138;2022-09-23T08:33:39;9.43;;;5.67;;
33993;SDS011;20673;48.980;8.138;2022-09-23T08:36:06;6.62;;;5.12;;
33993;SDS011;20673;48.980;8.138;2022-09-23T08:38:32;9.40;;;5.47;;
33993;SDS011;20673;48.980;8.138;2022-09-23T08:43:48;6.87;;;5.53;;
33993;SDS011;20673;48.980;8.138;2022-09-23T08:46:24;6.72;;;6.05;;
33993;SDS011;20673;48.980;8.138;2022-09-23T08:48:54;5.50;;;4.93;;
33993;SDS011;20673;48.980;8.138;2022-09-23T08:51:40;7.10;;;5.60;;
33993;SDS011;20673;48.980;8.138;2022-09-23T08:54:12;9.03;;;5.30;;
33993;SDS011;20673;48.980;8.138;2022-09-23T08:56:40;6.93;;;5.50;;
33993;SDS011;20673;48.980;8.138;2022-09-23T09:01:58;5.90;;;5.17;;
33993;SDS011;20673;48.980;8.138;2022-09-23T09:09:41;7.30;;;5.10;;
33993;SDS011;20673;48.980;8.138;2022-09-23T09:12:18;7.33;;;5.23;;
33993;SDS011;20673;48.980;8.138;2022-09-23T09:15:04;8.07;;;5.30;;
33993;SDS011;20673;48.980;8.138;2022-09-23T09:17:47;7.57;;;5.90;;
33993;SDS011;20673;48.980;8.138;2022-09-23T09:25:50;6.93;;;4.73;;
33993;SDS011;20673;48.980;8.138;2022-09-23T09:28:26;9.73;;;5.10;;
33993;SDS011;20673;48.980;8.138;2022-09-23T09:31:02;5.87;;;4.47;;
33993;SDS011;20673;48.980;8.138;2022-09-23T09:33:29;6.15;;;4.75;;
33993;SDS011;20673;48.980;8.138;2022-09-23T09:39:09;6.08;;;4.92;;
33993;SDS011;20673;48.980;8.138;2022-09-23T09:41:46;6.15;;;4.60;;
33993;SDS011;20673;48.980;8.138;2022-09-23T09:44:30;4.95;;;4.20;;
33993;SDS011;20673;48.980;8.138;2022-09-23T09:50:11;5.85;;;3.72;;
33993;SDS011;20673;48.980;8.138;2022-09-23T09:52:43;4.62;;;3.62;;
33993;SDS011;20673;48.980;8.138;2022-09-23T09:57:53;3.55;;;2.80;;
33993;SDS011;20673;48.980;8.138;2022-09-23T10:03:04;4.90;;;3.10;;
33993;SDS011;20673;48.980;8.138;2022-09-23T10:11:02;4.87;;;3.83;;
33993;SDS011;20673;48.980;8.138;2022-09-23T10:13:41;6.25;;;4.83;;
33993;SDS011;20673;48.980;8.138;2022-09-23T10:16:29;6.20;;;4.10;;
33993;SDS011;20673;48.980;8.138;2022-09-23T10:18:58;5.83;;;3.62;;
33993;SDS011;20673;48.980;8.138;2022-09-23T10:21:31;4.50;;;4.03;;
33993;SDS011;20673;48.980;8.138;2022-09-23T10:24:01;5.35;;;3.52;;
33993;SDS011;20673;48.980;8.138;2022-09-23T10:26:42;4.33;;;3.92;;
33993;SDS011;20673;48.980;8.138;2022-09-23T10:32:15;5.67;;;3.65;;
33993;SDS011;20673;48.980;8.138;2022-09-23T10:34:57;7.10;;;4.22;;
33993;SDS011;20673;48.980;8.138;2022-09-23T10:37:44;4.87;;;4.17;;
33993;SDS011;20673;48.980;8.138;2022-09-23T10:46:27;4.92;;;4.10;;
33993;SDS011;20673;48.980;8.138;2022-09-23T11:03:39;7.00;;;3.67;;
33993;SDS011;20673;48.980;8.138;2022-09-23T11:06:35;6.90;;;4.12;;
33993;SDS011;20673;48.980;8.138;2022-09-23T11:15:22;6.70;;;3.85;;
33993;SDS011;20673;48.980;8.138;2022-09-23T11:30:10;7.03;;;2.30;;
33993;SDS011;20673;48.980;8.138;2022-09-23T11:40:48;4.25;;;2.62;;
33993;SDS011;20673;48.980;8.138;2022-09-23T11:43:26;5.00;;;2.30;;
33993;SDS011;20673;48.980;8.138;2022-09-23T11:46:02;5.70;;;2.30;;
33993;SDS011;20673;48.980;8.138;2022-09-23T11:48:56;2.65;;;2.08;;
33993;SDS011;20673;48.980;8.138;2022-09-23T11:51:39;4.20;;;2.35;;
33993;SDS011;20673;48.980;8.138;2022-09-23T11:54:20;5.30;;;2.52;;
33993;SDS011;20673;48.980;8.138;2022-09-23T11:56:52;6.05;;;2.33;;
33993;SDS011;20673;48.980;8.138;2022-09-23T12:02:29;3.05;;;2.42;;
33993;SDS011;20673;48.980;8.138;2022-09-23T12:05:17;3.92;;;2.40;;
33993;SDS011;20673;48.980;8.138;2022-09-23T12:07:50;3.67;;;2.67;;
33993;SDS011;20673;48.980;8.138;2022-09-23T12:16:42;2.75;;;1.70;;
33993;SDS011;20673;48.980;8.138;2022-09-23T12:28:25;2.87;;;2.12;;
33993;SDS011;20673;48.980;8.138;2022-09-23T12:30:55;3.17;;;2.10;;
33993;SDS011;20673;48.980;8.138;2022-09-23T12:33:26;4.80;;;2.15;;
33993;SDS011;20673;48.980;8.138;2022-09-23T12:36:03;3.92;;;2.52;;
33993;SDS011;20673;48.980;8.138;2022-09-23T12:49:53;4.55;;;2.17;;
33993;SDS011;20673;48.980;8.138;2022-09-23T12:54:59;3.22;;;1.98;;
33993;SDS011;20673;48.980;8.138;2022-09-23T12:57:40;5.10;;;2.00;;
33993;SDS011;20673;48.980;8.138;2022-09-23T13:05:45;3.12;;;1.90;;
33993;SDS011;20673;48.980;8.138;2022-09-23T13:08:44;2.62;;;2.05;;
33993;SDS011;20673;48.980;8.138;2022-09-23T13:11:18;10.60;;;2.67;;
33993;SDS011;20673;48.980;8.138;2022-09-23T13:13:45;4.53;;;2.35;;
33993;SDS011;20673;48.980;8.138;2022-09-23T13:16:33;4.08;;;2.60;;
33993;SDS011;20673;48.980;8.138;2022-09-23T13:19:55;4.45;;;2.77;;
33993;SDS011;20673;48.980;8.138;2022-09-23T13:27:18;6.75;;;2.20;;
33993;SDS011;20673;48.980;8.138;2022-09-23T13:30:04;3.42;;;2.10;;
33993;SDS011;20673;48.980;8.138;2022-09-23T13:32:42;4.37;;;2.40;;
33993;SDS011;20673;48.980;8.138;2022-09-23T13:37:46;4.67;;;2.17;;
33993;SDS011;20673;48.980;8.138;2022-09-23T13:42:59;4.53;;;2.25;;
33993;SDS011;20673;48.980;8.138;2022-09-23T13:45:27;4.83;;;2.27;;
33993;SDS011;20673;48.980;8.138;2022-09-23T13:48:03;3.87;;;2.30;;
33993;SDS011;20673;48.980;8.138;2022-09-23T13:50:32;4.87;;;2.50;;
33993;SDS011;20673;48.980;8.138;2022-09-23T13:53:07;3.60;;;2.25;;
33993;SDS011;20673;48.980;8.138;2022-09-23T13:55:36;7.62;;;2.52;;
33993;SDS011;20673;48.980;8.138;2022-09-23T13:58:11;3.40;;;2.10;;
33993;SDS011;20673;48.980;8.138;2022-09-23T14:00:42;6.03;;;2.15;;
33993;SDS011;20673;48.980;8.138;2022-09-23T14:03:16;3.55;;;2.27;;
33993;SDS011;20673;48.980;8.138;2022-09-23T14:05:59;3.60;;;2.67;;
33993;SDS011;20673;48.980;8.138;2022-09-23T14:08:37;3.27;;;1.90;;
33993;SDS011;20673;48.980;8.138;2022-09-23T14:11:07;3.65;;;2.02;;
33993;SDS011;20673;48.980;8.138;2022-09-23T14:13:45;4.55;;;2.52;;
33993;SDS011;20673;48.980;8.138;2022-09-23T14:16:15;3.00;;;2.10;;
33993;SDS011;20673;48.980;8.138;2022-09-23T14:18:44;2.92;;;2.25;;
33993;SDS011;20673;48.980;8.138;2022-09-23T14:21:28;3.05;;;1.95;;
33993;SDS011;20673;48.980;8.138;2022-09-23T14:24:18;2.97;;;1.80;;
33993;SDS011;20673;48.980;8.138;2022-09-23T14:26:54;4.83;;;2.27;;
33993;SDS011;20673;48.980;8.138;2022-09-23T14:29:26;5.65;;;2.33;;
33993;SDS011;20673;48.980;8.138;2022-09-23T14:31:57;3.05;;;2.10;;
33993;SDS011;20673;48.980;8.138;2022-09-23T14:37:37;3.20;;;2.43;;
33993;SDS011;20673;48.980;8.138;2022-09-23T14:40:27;6.30;;;2.22;;
33993;SDS011;20673;48.980;8.138;2022-09-23T14:43:12;3.70;;;1.87;;
33993;SDS011;20673;48.980;8.138;2022-09-23T14:45:44;3.43;;;2.47;;
33993;SDS011;20673;48.980;8.138;2022-09-23T14:48:18;5.60;;;2.30;;
33993;SDS011;20673;48.980;8.138;2022-09-23T14:50:55;3.67;;;2.40;;
33993;SDS011;20673;48.980;8.138;2022-09-23T14:53:29;5.20;;;1.90;;
33993;SDS011;20673;48.980;8.138;2022-09-23T14:58:52;3.77;;;2.30;;
33993;SDS011;20673;48.980;8.138;2022-09-23T15:04:10;4.85;;;2.52;;
33993;SDS011;20673;48.980;8.138;2022-09-23T15:06:49;3.92;;;2.17;;
33993;SDS011;20673;48.980;8.138;2022-09-23T15:09:21;5.27;;;2.30;;
33993;SDS011;20673;48.980;8.138;2022-09-23T15:12:01;4.62;;;2.33;;
33993;SDS011;20673;48.980;8.138;2022-09-23T15:14:39;3.87;;;2.10;;
33993;SDS011;20673;48.980;8.138;2022-09-23T15:17:14;3.35;;;2.40;;
33993;SDS011;20673;48.980;8.138;2022-09-23T15:19:49;5.33;;;2.22;;
33993;SDS011;20673;48.980;8.138;2022-09-23T15:22:21;2.93;;;2.33;;
33993;SDS011;20673;48.980;8.138;2022-09-23T15:24:51;3.27;;;2.00;;
33993;SDS011;20673;48.980;8.138;2022-09-23T15:30:16;4.20;;;2.37;;
33993;SDS011;20673;48.980;8.138;2022-09-23T15:32:43;8.33;;;2.53;;
33993;SDS011;20673;48.980;8.138;2022-09-23T15:35:12;2.93;;;1.90;;
33993;SDS011;20673;48.980;8.138;2022-09-23T15:37:43;2.98;;;2.52;;
33993;SDS011;20673;48.980;8.138;2022-09-23T15:40:19;6.10;;;2.30;;
33993;SDS011;20673;48.980;8.138;2022-09-23T15:42:56;2.60;;;2.37;;
33993;SDS011;20673;48.980;8.138;2022-09-23T15:45:30;5.17;;;2.72;;
33993;SDS011;20673;48.980;8.138;2022-09-23T15:48:05;8.73;;;2.98;;
33993;SDS011;20673;48.980;8.138;2022-09-23T15:50:39;3.00;;;2.50;;
33993;SDS011;20673;48.980;8.138;2022-09-23T15:53:06;6.08;;;3.10;;
33993;SDS011;20673;48.980;8.138;2022-09-23T15:55:39;4.53;;;2.83;;
33993;SDS011;20673;48.980;8.138;2022-09-23T15:58:05;13.43;;;3.23;;
33993;SDS011;20673;48.980;8.138;2022-09-23T16:00:31;6.60;;;2.73;;
33993;SDS011;20673;48.980;8.138;2022-09-23T16:03:00;7.43;;;2.87;;
33993;SDS011;20673;48.980;8.138;2022-09-23T16:05:30;8.40;;;2.90;;
33993;SDS011;20673;48.980;8.138;2022-09-23T16:08:02;3.00;;;2.53;;
33993;SDS011;20673;48.980;8.138;2022-09-23T16:10:33;5.00;;;2.77;;
33993;SDS011;20673;48.980;8.138;2022-09-23T16:13:01;4.83;;;2.73;;
33993;SDS011;20673;48.980;8.138;2022-09-23T16:15:30;3.93;;;2.30;;
33993;SDS011;20673;48.980;8.138;2022-09-23T16:17:58;4.30;;;2.50;;
33993;SDS011;20673;48.980;8.138;2022-09-23T16:20:26;3.90;;;2.70;;
33993;SDS011;20673;48.980;8.138;2022-09-23T16:22:58;2.70;;;2.20;;
33993;SDS011;20673;48.980;8.138;2022-09-23T16:25:32;4.40;;;2.40;;
33993;SDS011;20673;48.980;8.138;2022-09-23T16:28:02;8.77;;;3.00;;
33993;SDS011;20673;48.980;8.138;2022-09-23T16:30:30;8.43;;;4.03;;
33993;SDS011;20673;48.980;8.138;2022-09-23T16:32:58;6.10;;;4.50;;
33993;SDS011;20673;48.980;8.138;2022-09-23T16:35:26;5.37;;;2.33;;
33993;SDS011;20673;48.980;8.138;2022-09-23T16:37:57;5.20;;;2.70;;
33993;SDS011;20673;48.980;8.138;2022-09-23T16:40:24;5.37;;;2.47;;
33993;SDS011;20673;48.980;8.138;2022-09-23T16:42:51;7.40;;;2.70;;
33993;SDS011;20673;48.980;8.138;2022-09-23T16:45:20;4.47;;;2.67;;
33993;SDS011;20673;48.980;8.138;2022-09-23T16:47:48;5.80;;;3.83;;
33993;SDS011;20673;48.980;8.138;2022-09-23T16:50:17;8.20;;;4.67;;
33993;SDS011;20673;48.980;8.138;2022-09-23T16:52:47;6.80;;;3.30;;
33993;SDS011;20673;48.980;8.138;2022-09-23T16:55:15;4.73;;;2.87;;
33993;SDS011;20673;48.980;8.138;2022-09-23T16:57:41;7.55;;;2.62;;
33993;SDS011;20673;48.980;8.138;2022-09-23T17:00:11;4.55;;;2.80;;
33993;SDS011;20673;48.980;8.138;2022-09-23T17:02:59;4.92;;;3.70;;
33993;SDS011;20673;48.980;8.138;2022-09-23T17:05:44;6.33;;;3.05;;
33993;SDS011;20673;48.980;8.138;2022-09-23T17:08:13;5.72;;;3.17;;
33993;SDS011;20673;48.980;8.138;2022-09-23T17:10:41;5.67;;;3.42;;
33993;SDS011;20673;48.980;8.138;2022-09-23T17:13:10;6.42;;;2.92;;
33993;SDS011;20673;48.980;8.138;2022-09-23T17:15:39;8.88;;;5.12;;
33993;SDS011;20673;48.980;8.138;2022-09-23T17:18:06;7.55;;;4.72;;
33993;SDS011;20673;48.980;8.138;2022-09-23T17:20:34;6.72;;;4.30;;
33993;SDS011;20673;48.980;8.138;2022-09-23T17:23:02;5.05;;;3.45;;
33993;SDS011;20673;48.980;8.138;2022-09-23T17:25:29;5.40;;;3.30;;
33993;SDS011;20673;48.980;8.138;2022-09-23T17:27:58;3.55;;;2.90;;
33993;SDS011;20673;48.980;8.138;2022-09-23T17:30:25;5.10;;;2.63;;
33993;SDS011;20673;48.980;8.138;2022-09-23T17:32:52;7.53;;;3.47;;
33993;SDS011;20673;48.980;8.138;2022-09-23T17:35:18;4.53;;;2.58;;
33993;SDS011;20673;48.980;8.138;2022-09-23T17:37:45;5.17;;;2.77;;
33993;SDS011;20673;48.980;8.138;2022-09-23T17:40:12;9.35;;;2.85;;
33993;SDS011;20673;48.980;8.138;2022-09-23T17:42:39;4.63;;;2.80;;
33993;SDS011;20673;48.980;8.138;2022-09-23T17:45:08;4.73;;;2.83;;
33993;SDS011;20673;48.980;8.138;2022-09-23T17:47:36;3.13;;;2.70;;
33993;SDS011;20673;48.980;8.138;2022-09-23T17:50:03;6.30;;;2.90;;
33993;SDS011;20673;48.980;8.138;2022-09-23T17:52:30;8.80;;;4.10;;
33993;SDS011;20673;48.980;8.138;2022-09-23T17:54:57;8.73;;;3.33;;
33993;SDS011;20673;48.980;8.138;2022-09-23T17:57:23;4.73;;;3.10;;
33993;SDS011;20673;48.980;8.138;2022-09-23T17:59:49;6.90;;;3.23;;
33993;SDS011;20673;48.980;8.138;2022-09-23T18:02:18;4.47;;;3.13;;
33993;SDS011;20673;48.980;8.138;2022-09-23T18:04:45;4.13;;;3.73;;
33993;SDS011;20673;48.980;8.138;2022-09-23T18:07:11;5.60;;;3.70;;
33993;SDS011;20673;48.980;8.138;2022-09-23T18:09:37;4.90;;;3.40;;
33993;SDS011;20673;48.980;8.138;2022-09-23T18:12:03;6.33;;;4.30;;
33993;SDS011;20673;48.980;8.138;2022-09-23T18:14:30;6.13;;;4.30;;
33993;SDS011;20673;48.980;8.138;2022-09-23T18:16:56;6.83;;;4.80;;
33993;SDS011;20673;48.980;8.138;2022-09-23T18:19:22;5.77;;;4.13;;
33993;SDS011;20673;48.980;8.138;2022-09-23T18:21:51;7.57;;;4.40;;
33993;SDS011;20673;48.980;8.138;2022-09-23T18:24:20;5.77;;;4.57;;
33993;SDS011;20673;48.980;8.138;2022-09-23T18:26:47;5.50;;;5.00;;
33993;SDS011;20673;48.980;8.138;2022-09-23T18:29:17;8.57;;;5.93;;
33993;SDS011;20673;48.980;8.138;2022-09-23T18:31:44;9.97;;;5.03;;